sensor_id;sensor_type;location;lat;lon;timestamp;temperature;humidity
13346;DHT22;6742;48.036;15.780;2023-01-01T00:00:17;7.00;99.90
13346;DHT22;6742;48.036;15.780;2023-01-01T00:02:47;7.00;99.90
13346;DHT22;6742;48.036;15.780;2023-01-01T00:05:14;7.00;99.90
13346;DHT22;6742;48.036;15.780;2023-01-01T00:07:41;7.00;99.90
13346;DHT22;6742;48.036;15.780;2023-01-01T00:10:10;7.00;99.90
13346;DHT22;6742;48.036;15.780;2023-01-01T00:12:55;7.00;99.90
13346;DHT22;6742;48.036;15.780;2023-01-01T00:15:23;7.00;99.90
13346;DHT22;6742;48.036;15.780;2023-01-01T00:17:50;7.00;99.90
13346;DHT22;6742;48.036;15.780;2023-01-01T00:20:20;6.90;99.90
13346;DHT22;6742;48.036;15.780;2023-01-01T00:22:50;6.90;99.90
13346;DHT22;6742;48.036;15.780;2023-01-01T00:25:18;6.90;99.90
13346;DHT22;6742;48.036;15.780;2023-01-01T00:27:45;6.90;99.90
13346;DHT22;6742;48.036;15.780;2023-01-01T00:30:12;6.80;99.90
13346;DHT22;6742;48.036;15.780;2023-01-01T00:32:39;6.80;99.90
13346;DHT22;6742;48.036;15.780;2023-01-01T00:35:07;6.80;99.90
13346;DHT22;6742;48.036;15.780;2023-01-01T00:37:34;6.80;99.90
13346;DHT22;6742;48.036;15.780;2023-01-01T00:40:01;6.80;99.90
13346;DHT22;6742;48.036;15.780;2023-01-01T00:42:30;6.80;99.90
13346;DHT22;6742;48.036;15.780;2023-01-01T00:44:56;6.70;99.90
13346;DHT22;6742;48.036;15.780;2023-01-01T00:47:23;6.80;99.90
13346;DHT22;6742;48.036;15.780;2023-01-01T00:49:50;6.80;99.90
13346;DHT22;6742;48.036;15.780;2023-01-01T00:52:17;6.80;99.90
13346;DHT22;6742;48.036;15.780;2023-01-01T00:54:44;6.80;99.90
13346;DHT22;6742;48.036;15.780;2023-01-01T00:57:11;6.70;99.90
13346;DHT22;6742;48.036;15.780;2023-01-01T00:59:39;6.70;99.90
13346;DHT22;6742;48.036;15.780;2023-01-01T01:02:06;6.60;99.90
13346;DHT22;6742;48.036;15.780;2023-01-01T01:04:33;6.60;99.90
13346;DHT22;6742;48.036;15.780;2023-01-01T01:07:00;6.50;99.90
13346;DHT22;6742;48.036;15.780;2023-01-01T01:09:27;6.50;99.90
13346;DHT22;6742;48.036;15.780;2023-01-01T01:11:54;6.50;99.90
13346;DHT22;6742;48.036;15.780;2023-01-01T01:14:20;6.50;99.90
13346;DHT22;6742;48.036;15.780;2023-01-01T01:16:49;6.40;99.90
13346;DHT22;6742;48.036;15.780;2023-01-01T01:19:16;6.50;99.90
13346;DHT22;6742;48.036;15.780;2023-01-01T01:21:44;6.50;99.90
13346;DHT22;6742;48.036;15.780;2023-01-01T01:24:12;6.40;99.90
13346;DHT22;6742;48.036;15.780;2023-01-01T01:26:39;6.40;99.90
13346;DHT22;6742;48.036;15.780;2023-01-01T01:29:06;6.40;99.90
13346;DHT22;6742;48.036;15.780;2023-01-01T01:31:33;6.40;99.90
13346;DHT22;6742;48.036;15.780;2023-01-01T01:34:02;6.40;99.90
13346;DHT22;6742;48.036;15.780;2023-01-01T01:36:29;6.30;99.90
13346;DHT22;6742;48.036;15.780;2023-01-01T01:38:56;6.30;99.90
13346;DHT22;6742;48.036;15.780;2023-01-01T01:41:24;6.40;99.90
13346;DHT22;6742;48.036;15.780;2023-01-01T01:43:54;6.30;99.90
13346;DHT22;6742;48.036;15.780;2023-01-01T01:46:29;6.30;99.90
13346;DHT22;6742;48.036;15.780;2023-01-01T01:49:00;6.20;99.90
13346;DHT22;6742;48.036;15.780;2023-01-01T01:51:34;6.20;99.90
13346;DHT22;6742;48.036;15.780;2023-01-01T01:54:05;6.20;99.90
13346;DHT22;6742;48.036;15.780;2023-01-01T01:56:39;6.20;99.90
13346;DHT22;6742;48.036;15.780;2023-01-01T01:59:08;6.10;99.90
13346;DHT22;6742;48.036;15.780;2023-01-01T02:01:35;6.20;99.90
13346;DHT22;6742;48.036;15.780;2023-01-01T02:04:03;6.20;99.90
13346;DHT22;6742;48.036;15.780;2023-01-01T02:06:32;6.20;99.90
13346;DHT22;6742;48.036;15.780;2023-01-01T02:09:03;6.20;99.90
13346;DHT22;6742;48.036;15.780;2023-01-01T02:11:30;6.10;99.90
13346;DHT22;6742;48.036;15.780;2023-01-01T02:13:58;6.10;99.90
13346;DHT22;6742;48.036;15.780;2023-01-01T02:16:32;6.10;99.90
13346;DHT22;6742;48.036;15.780;2023-01-01T02:19:11;6.10;99.90
13346;DHT22;6742;48.036;15.780;2023-01-01T02:21:50;6.00;99.90
13346;DHT22;6742;48.036;15.780;2023-01-01T02:24:33;6.00;99.90
13346;DHT22;6742;48.036;15.780;2023-01-01T02:27:04;6.00;99.90
13346;DHT22;6742;48.036;15.780;2023-01-01T02:29:38;6.00;99.90
13346;DHT22;6742;48.036;15.780;2023-01-01T02:32:09;6.00;99.90
13346;DHT22;6742;48.036;15.780;2023-01-01T02:34:39;5.90;99.90
13346;DHT22;6742;48.036;15.780;2023-01-01T02:37:10;5.90;99.90
13346;DHT22;6742;48.036;15.780;2023-01-01T02:39:41;5.90;99.90
13346;DHT22;6742;48.036;15.780;2023-01-01T02:42:12;5.80;99.90
13346;DHT22;6742;48.036;15.780;2023-01-01T02:44:44;5.80;99.90
13346;DHT22;6742;48.036;15.780;2023-01-01T02:47:16;5.80;99.90
13346;DHT22;6742;48.036;15.780;2023-01-01T02:49:49;5.80;99.90
13346;DHT22;6742;48.036;15.780;2023-01-01T02:55:13;5.70;99.90
13346;DHT22;6742;48.036;15.780;2023-01-01T02:57:46;5.70;99.90
13346;DHT22;6742;48.036;15.780;2023-01-01T03:00:19;5.60;99.90
13346;DHT22;6742;48.036;15.780;2023-01-01T03:03:08;5.70;99.90
13346;DHT22;6742;48.036;15.780;2023-01-01T03:05:42;5.60;99.90
13346;DHT22;6742;48.036;15.780;2023-01-01T03:08:42;5.60;99.90
13346;DHT22;6742;48.036;15.780;2023-01-01T03:11:13;5.60;99.90
13346;DHT22;6742;48.036;15.780;2023-01-01T03:13:48;5.50;99.90
13346;DHT22;6742;48.036;15.780;2023-01-01T03:16:21;5.50;99.90
13346;DHT22;6742;48.036;15.780;2023-01-01T03:18:55;5.50;99.90
13346;DHT22;6742;48.036;15.780;2023-01-01T03:21:40;5.40;99.90
13346;DHT22;6742;48.036;15.780;2023-01-01T03:24:10;5.40;99.90
13346;DHT22;6742;48.036;15.780;2023-01-01T03:26:40;5.40;99.90
13346;DHT22;6742;48.036;15.780;2023-01-01T03:29:11;5.40;99.90
13346;DHT22;6742;48.036;15.780;2023-01-01T03:31:42;5.30;99.90
13346;DHT22;6742;48.036;15.780;2023-01-01T03:34:16;5.30;99.90
13346;DHT22;6742;48.036;15.780;2023-01-01T03:36:46;5.30;99.90
13346;DHT22;6742;48.036;15.780;2023-01-01T03:39:18;5.20;99.90
13346;DHT22;6742;48.036;15.780;2023-01-01T03:41:48;5.30;99.90
13346;DHT22;6742;48.036;15.780;2023-01-01T03:44:23;5.30;99.90
13346;DHT22;6742;48.036;15.780;2023-01-01T03:46:53;5.30;99.90
13346;DHT22;6742;48.036;15.780;2023-01-01T03:49:20;5.30;99.90
13346;DHT22;6742;48.036;15.780;2023-01-01T03:52:19;5.30;99.90
13346;DHT22;6742;48.036;15.780;2023-01-01T03:54:52;5.30;99.90
13346;DHT22;6742;48.036;15.780;2023-01-01T03:57:25;5.30;99.90
13346;DHT22;6742;48.036;15.780;2023-01-01T03:59:58;5.30;99.90
13346;DHT22;6742;48.036;15.780;2023-01-01T04:02:33;5.30;99.90
13346;DHT22;6742;48.036;15.780;2023-01-01T04:05:05;5.20;99.90
13346;DHT22;6742;48.036;15.780;2023-01-01T04:07:35;5.20;99.90
13346;DHT22;6742;48.036;15.780;2023-01-01T04:10:04;5.20;99.90
13346;DHT22;6742;48.036;15.780;2023-01-01T04:12:43;5.20;99.90
13346;DHT22;6742;48.036;15.780;2023-01-01T04:15:13;5.20;99.90
13346;DHT22;6742;48.036;15.780;2023-01-01T04:17:41;5.30;99.90
13346;DHT22;6742;48.036;15.780;2023-01-01T04:20:09;5.20;99.90
13346;DHT22;6742;48.036;15.780;2023-01-01T04:22:36;5.10;99.90
13346;DHT22;6742;48.036;15.780;2023-01-01T04:25:04;5.10;99.90
13346;DHT22;6742;48.036;15.780;2023-01-01T04:27:31;5.10;99.90
13346;DHT22;6742;48.036;15.780;2023-01-01T04:29:58;5.10;99.90
13346;DHT22;6742;48.036;15.780;2023-01-01T04:32:25;5.00;99.90
13346;DHT22;6742;48.036;15.780;2023-01-01T04:34:53;5.00;99.90
13346;DHT22;6742;48.036;15.780;2023-01-01T04:37:20;5.00;99.90
13346;DHT22;6742;48.036;15.780;2023-01-01T04:39:47;4.90;99.90
13346;DHT22;6742;48.036;15.780;2023-01-01T04:42:14;4.90;99.90
13346;DHT22;6742;48.036;15.780;2023-01-01T04:44:41;4.90;99.90
13346;DHT22;6742;48.036;15.780;2023-01-01T04:47:08;5.00;99.90
13346;DHT22;6742;48.036;15.780;2023-01-01T04:49:35;4.90;99.90
13346;DHT22;6742;48.036;15.780;2023-01-01T04:52:04;4.90;99.90
13346;DHT22;6742;48.036;15.780;2023-01-01T04:54:31;4.90;99.90
13346;DHT22;6742;48.036;15.780;2023-01-01T04:56:58;4.90;99.90
13346;DHT22;6742;48.036;15.780;2023-01-01T04:59:25;4.80;99.90
13346;DHT22;6742;48.036;15.780;2023-01-01T05:01:52;4.90;99.90
13346;DHT22;6742;48.036;15.780;2023-01-01T05:04:19;4.90;99.90
13346;DHT22;6742;48.036;15.780;2023-01-01T05:06:46;4.90;99.90
13346;DHT22;6742;48.036;15.780;2023-01-01T05:09:17;4.90;99.90
13346;DHT22;6742;48.036;15.780;2023-01-01T05:11:44;5.00;99.90
13346;DHT22;6742;48.036;15.780;2023-01-01T05:14:11;4.90;99.90
13346;DHT22;6742;48.036;15.780;2023-01-01T05:16:42;5.00;99.90
13346;DHT22;6742;48.036;15.780;2023-01-01T05:19:09;4.90;99.90
13346;DHT22;6742;48.036;15.780;2023-01-01T05:21:38;4.80;99.90
13346;DHT22;6742;48.036;15.780;2023-01-01T05:24:07;4.80;99.90
13346;DHT22;6742;48.036;15.780;2023-01-01T05:26:37;4.90;99.90
13346;DHT22;6742;48.036;15.780;2023-01-01T05:29:04;4.90;99.90
13346;DHT22;6742;48.036;15.780;2023-01-01T05:31:34;4.90;99.90
13346;DHT22;6742;48.036;15.780;2023-01-01T05:34:02;4.90;99.90
13346;DHT22;6742;48.036;15.780;2023-01-01T05:36:31;4.90;99.90
13346;DHT22;6742;48.036;15.780;2023-01-01T05:38:58;4.90;99.90
13346;DHT22;6742;48.036;15.780;2023-01-01T05:41:25;4.90;99.90
13346;DHT22;6742;48.036;15.780;2023-01-01T05:43:54;5.00;99.90
13346;DHT22;6742;48.036;15.780;2023-01-01T05:46:22;4.90;99.90
13346;DHT22;6742;48.036;15.780;2023-01-01T05:48:53;4.90;99.90
13346;DHT22;6742;48.036;15.780;2023-01-01T05:51:22;4.90;99.90
13346;DHT22;6742;48.036;15.780;2023-01-01T05:53:50;4.80;99.90
13346;DHT22;6742;48.036;15.780;2023-01-01T05:56:17;4.80;99.90
13346;DHT22;6742;48.036;15.780;2023-01-01T05:58:45;4.80;99.90
13346;DHT22;6742;48.036;15.780;2023-01-01T06:01:15;4.80;99.90
13346;DHT22;6742;48.036;15.780;2023-01-01T06:03:43;4.80;99.90
13346;DHT22;6742;48.036;15.780;2023-01-01T06:06:15;4.80;99.90
13346;DHT22;6742;48.036;15.780;2023-01-01T06:08:42;4.70;99.90
13346;DHT22;6742;48.036;15.780;2023-01-01T06:11:14;4.80;99.90
13346;DHT22;6742;48.036;15.780;2023-01-01T06:13:41;4.80;99.90
13346;DHT22;6742;48.036;15.780;2023-01-01T06:16:08;4.80;99.90
13346;DHT22;6742;48.036;15.780;2023-01-01T06:18:37;4.80;99.90
13346;DHT22;6742;48.036;15.780;2023-01-01T06:21:05;4.80;99.90
13346;DHT22;6742;48.036;15.780;2023-01-01T06:23:33;4.70;99.90
13346;DHT22;6742;48.036;15.780;2023-01-01T06:26:07;4.80;99.90
13346;DHT22;6742;48.036;15.780;2023-01-01T06:28:35;4.80;99.90
13346;DHT22;6742;48.036;15.780;2023-01-01T06:31:03;4.70;99.90
13346;DHT22;6742;48.036;15.780;2023-01-01T06:33:31;4.70;99.90
13346;DHT22;6742;48.036;15.780;2023-01-01T06:36:08;4.70;99.90
13346;DHT22;6742;48.036;15.780;2023-01-01T06:38:37;4.70;99.90
13346;DHT22;6742;48.036;15.780;2023-01-01T06:41:06;4.70;99.90
13346;DHT22;6742;48.036;15.780;2023-01-01T06:43:34;4.70;99.90
13346;DHT22;6742;48.036;15.780;2023-01-01T06:46:02;4.70;99.90
13346;DHT22;6742;48.036;15.780;2023-01-01T06:48:32;4.60;99.90
13346;DHT22;6742;48.036;15.780;2023-01-01T06:51:06;4.60;99.90
13346;DHT22;6742;48.036;15.780;2023-01-01T06:53:33;4.60;99.90
13346;DHT22;6742;48.036;15.780;2023-01-01T06:56:00;4.60;99.90
13346;DHT22;6742;48.036;15.780;2023-01-01T06:58:30;4.70;99.90
13346;DHT22;6742;48.036;15.780;2023-01-01T07:01:02;4.60;99.90
13346;DHT22;6742;48.036;15.780;2023-01-01T07:03:29;4.60;99.90
13346;DHT22;6742;48.036;15.780;2023-01-01T07:05:56;4.80;99.90
13346;DHT22;6742;48.036;15.780;2023-01-01T07:08:24;4.60;99.90
13346;DHT22;6742;48.036;15.780;2023-01-01T07:10:51;4.90;99.90
13346;DHT22;6742;48.036;15.780;2023-01-01T07:13:21;4.70;99.90
13346;DHT22;6742;48.036;15.780;2023-01-01T07:15:52;4.60;99.90
13346;DHT22;6742;48.036;15.780;2023-01-01T07:18:19;4.60;99.90
13346;DHT22;6742;48.036;15.780;2023-01-01T07:20:48;4.70;99.90
13346;DHT22;6742;48.036;15.780;2023-01-01T07:23:15;4.60;99.90
13346;DHT22;6742;48.036;15.780;2023-01-01T07:25:44;4.60;99.90
13346;DHT22;6742;48.036;15.780;2023-01-01T07:28:11;4.70;99.90
13346;DHT22;6742;48.036;15.780;2023-01-01T07:30:38;4.60;99.90
13346;DHT22;6742;48.036;15.780;2023-01-01T07:33:05;4.60;99.90
13346;DHT22;6742;48.036;15.780;2023-01-01T07:35:32;4.80;99.90
13346;DHT22;6742;48.036;15.780;2023-01-01T07:37:59;4.80;99.90
13346;DHT22;6742;48.036;15.780;2023-01-01T07:40:26;4.60;99.90
13346;DHT22;6742;48.036;15.780;2023-01-01T07:42:54;4.70;99.90
13346;DHT22;6742;48.036;15.780;2023-01-01T07:45:21;4.70;99.90
13346;DHT22;6742;48.036;15.780;2023-01-01T07:47:50;4.60;99.90
13346;DHT22;6742;48.036;15.780;2023-01-01T07:50:18;4.70;99.90
13346;DHT22;6742;48.036;15.780;2023-01-01T07:52:45;4.80;99.90
13346;DHT22;6742;48.036;15.780;2023-01-01T07:55:12;4.70;99.90
13346;DHT22;6742;48.036;15.780;2023-01-01T07:57:43;4.60;99.90
13346;DHT22;6742;48.036;15.780;2023-01-01T08:00:14;4.80;99.90
13346;DHT22;6742;48.036;15.780;2023-01-01T08:02:41;4.70;99.90
13346;DHT22;6742;48.036;15.780;2023-01-01T08:05:08;4.70;99.90
13346;DHT22;6742;48.036;15.780;2023-01-01T08:07:36;4.80;99.90
13346;DHT22;6742;48.036;15.780;2023-01-01T08:10:04;4.80;99.90
13346;DHT22;6742;48.036;15.780;2023-01-01T08:12:31;4.80;99.90
13346;DHT22;6742;48.036;15.780;2023-01-01T08:14:58;4.90;99.90
13346;DHT22;6742;48.036;15.780;2023-01-01T08:17:27;4.90;99.90
13346;DHT22;6742;48.036;15.780;2023-01-01T08:19:53;5.20;99.90
13346;DHT22;6742;48.036;15.780;2023-01-01T08:22:20;5.40;99.90
13346;DHT22;6742;48.036;15.780;2023-01-01T08:24:47;5.50;99.90
13346;DHT22;6742;48.036;15.780;2023-01-01T08:27:15;5.70;99.90
13346;DHT22;6742;48.036;15.780;2023-01-01T08:29:42;6.40;99.90
13346;DHT22;6742;48.036;15.780;2023-01-01T08:32:09;6.80;99.90
13346;DHT22;6742;48.036;15.780;2023-01-01T08:34:40;6.80;99.90
13346;DHT22;6742;48.036;15.780;2023-01-01T08:37:13;7.20;99.90
13346;DHT22;6742;48.036;15.780;2023-01-01T08:39:40;7.20;99.90
13346;DHT22;6742;48.036;15.780;2023-01-01T08:42:07;7.70;99.90
13346;DHT22;6742;48.036;15.780;2023-01-01T08:44:34;8.20;99.90
13346;DHT22;6742;48.036;15.780;2023-01-01T08:47:09;8.60;99.90
13346;DHT22;6742;48.036;15.780;2023-01-01T08:49:42;9.00;99.90
13346;DHT22;6742;48.036;15.780;2023-01-01T08:52:12;9.40;99.90
13346;DHT22;6742;48.036;15.780;2023-01-01T08:54:42;9.60;99.90
13346;DHT22;6742;48.036;15.780;2023-01-01T08:57:12;9.90;99.90
13346;DHT22;6742;48.036;15.780;2023-01-01T08:59:39;10.20;99.90
13346;DHT22;6742;48.036;15.780;2023-01-01T09:02:06;10.50;99.90
13346;DHT22;6742;48.036;15.780;2023-01-01T09:04:33;10.80;99.90
13346;DHT22;6742;48.036;15.780;2023-01-01T09:07:02;10.80;99.90
13346;DHT22;6742;48.036;15.780;2023-01-01T09:09:28;11.00;99.90
13346;DHT22;6742;48.036;15.780;2023-01-01T09:11:56;10.90;99.90
13346;DHT22;6742;48.036;15.780;2023-01-01T09:14:28;10.50;99.90
13346;DHT22;6742;48.036;15.780;2023-01-01T09:16:56;10.40;99.90
13346;DHT22;6742;48.036;15.780;2023-01-01T09:19:23;10.50;99.90
13346;DHT22;6742;48.036;15.780;2023-01-01T09:21:50;10.70;99.90
13346;DHT22;6742;48.036;15.780;2023-01-01T09:24:18;10.70;99.90
13346;DHT22;6742;48.036;15.780;2023-01-01T09:26:45;11.00;99.90
13346;DHT22;6742;48.036;15.780;2023-01-01T09:29:12;11.10;99.90
13346;DHT22;6742;48.036;15.780;2023-01-01T09:31:43;11.40;99.90
13346;DHT22;6742;48.036;15.780;2023-01-01T09:34:10;11.60;99.90
13346;DHT22;6742;48.036;15.780;2023-01-01T09:36:37;11.70;99.90
13346;DHT22;6742;48.036;15.780;2023-01-01T09:39:04;11.80;99.90
13346;DHT22;6742;48.036;15.780;2023-01-01T09:41:59;11.90;99.90
13346;DHT22;6742;48.036;15.780;2023-01-01T09:44:53;12.00;99.90
13346;DHT22;6742;48.036;15.780;2023-01-01T09:47:25;12.10;99.90
13346;DHT22;6742;48.036;15.780;2023-01-01T09:49:56;12.40;99.90
13346;DHT22;6742;48.036;15.780;2023-01-01T09:52:33;12.50;99.90
13346;DHT22;6742;48.036;15.780;2023-01-01T09:55:04;12.70;99.90
13346;DHT22;6742;48.036;15.780;2023-01-01T09:57:38;12.80;99.90
13346;DHT22;6742;48.036;15.780;2023-01-01T10:00:09;12.90;99.90
13346;DHT22;6742;48.036;15.780;2023-01-01T10:02:48;13.10;99.90
13346;DHT22;6742;48.036;15.780;2023-01-01T10:05:29;13.30;99.90
13346;DHT22;6742;48.036;15.780;2023-01-01T10:08:00;13.60;99.90
13346;DHT22;6742;48.036;15.780;2023-01-01T10:10:35;13.70;99.90
13346;DHT22;6742;48.036;15.780;2023-01-01T10:13:14;13.60;99.90
13346;DHT22;6742;48.036;15.780;2023-01-01T10:15:48;13.60;99.90
13346;DHT22;6742;48.036;15.780;2023-01-01T10:18:22;13.70;99.90
13346;DHT22;6742;48.036;15.780;2023-01-01T10:20:56;13.60;99.90
13346;DHT22;6742;48.036;15.780;2023-01-01T10:23:26;13.50;99.90
13346;DHT22;6742;48.036;15.780;2023-01-01T10:25:59;13.30;99.90
13346;DHT22;6742;48.036;15.780;2023-01-01T10:28:38;13.20;99.90
13346;DHT22;6742;48.036;15.780;2023-01-01T10:31:14;13.30;99.90
13346;DHT22;6742;48.036;15.780;2023-01-01T10:33:42;13.50;99.90
13346;DHT22;6742;48.036;15.780;2023-01-01T10:36:12;13.80;99.90
13346;DHT22;6742;48.036;15.780;2023-01-01T10:38:39;14.00;99.90
13346;DHT22;6742;48.036;15.780;2023-01-01T10:41:08;14.30;99.90
13346;DHT22;6742;48.036;15.780;2023-01-01T10:43:37;14.50;99.90
13346;DHT22;6742;48.036;15.780;2023-01-01T10:46:05;14.70;99.90
13346;DHT22;6742;48.036;15.780;2023-01-01T10:48:32;14.90;99.90
13346;DHT22;6742;48.036;15.780;2023-01-01T10:51:02;14.90;99.90
13346;DHT22;6742;48.036;15.780;2023-01-01T10:53:31;15.10;99.90
13346;DHT22;6742;48.036;15.780;2023-01-01T10:56:06;15.10;99.90
13346;DHT22;6742;48.036;15.780;2023-01-01T10:58:38;15.30;99.90
13346;DHT22;6742;48.036;15.780;2023-01-01T11:01:08;15.30;99.90
13346;DHT22;6742;48.036;15.780;2023-01-01T11:03:35;15.50;99.90
13346;DHT22;6742;48.036;15.780;2023-01-01T11:06:13;15.50;99.90
13346;DHT22;6742;48.036;15.780;2023-01-01T11:08:47;15.50;99.90
13346;DHT22;6742;48.036;15.780;2023-01-01T11:11:20;15.50;99.90
13346;DHT22;6742;48.036;15.780;2023-01-01T11:13:52;15.40;99.90
13346;DHT22;6742;48.036;15.780;2023-01-01T11:16:20;15.40;99.90
13346;DHT22;6742;48.036;15.780;2023-01-01T11:18:48;15.50;99.90
13346;DHT22;6742;48.036;15.780;2023-01-01T11:21:20;15.60;99.90
13346;DHT22;6742;48.036;15.780;2023-01-01T11:23:48;15.50;99.90
13346;DHT22;6742;48.036;15.780;2023-01-01T11:26:22;15.50;99.90
13346;DHT22;6742;48.036;15.780;2023-01-01T11:29:02;15.50;99.90
13346;DHT22;6742;48.036;15.780;2023-01-01T11:31:34;15.40;99.90
13346;DHT22;6742;48.036;15.780;2023-01-01T11:34:02;15.40;99.90
13346;DHT22;6742;48.036;15.780;2023-01-01T11:36:31;15.30;99.90
13346;DHT22;6742;48.036;15.780;2023-01-01T11:39:13;15.20;99.90
13346;DHT22;6742;48.036;15.780;2023-01-01T11:41:45;15.00;99.90
13346;DHT22;6742;48.036;15.780;2023-01-01T11:44:25;14.90;99.90
13346;DHT22;6742;48.036;15.780;2023-01-01T11:46:54;14.80;99.90
13346;DHT22;6742;48.036;15.780;2023-01-01T11:49:23;14.80;99.90
13346;DHT22;6742;48.036;15.780;2023-01-01T11:51:50;14.70;99.90
13346;DHT22;6742;48.036;15.780;2023-01-01T11:54:24;14.70;99.90
13346;DHT22;6742;48.036;15.780;2023-01-01T11:56:59;14.70;99.90
13346;DHT22;6742;48.036;15.780;2023-01-01T11:59:38;14.70;99.90
13346;DHT22;6742;48.036;15.780;2023-01-01T12:02:11;14.60;99.90
13346;DHT22;6742;48.036;15.780;2023-01-01T12:04:44;14.60;99.90
13346;DHT22;6742;48.036;15.780;2023-01-01T12:07:14;14.50;99.90
13346;DHT22;6742;48.036;15.780;2023-01-01T12:09:47;14.50;99.90
13346;DHT22;6742;48.036;15.780;2023-01-01T12:12:22;14.50;99.90
13346;DHT22;6742;48.036;15.780;2023-01-01T12:14:56;14.50;99.90
13346;DHT22;6742;48.036;15.780;2023-01-01T12:17:26;14.50;99.90
13346;DHT22;6742;48.036;15.780;2023-01-01T12:20:01;14.50;99.90
13346;DHT22;6742;48.036;15.780;2023-01-01T12:22:30;14.70;99.90
13346;DHT22;6742;48.036;15.780;2023-01-01T12:24:58;14.80;99.90
13346;DHT22;6742;48.036;15.780;2023-01-01T12:27:40;14.80;99.90
13346;DHT22;6742;48.036;15.780;2023-01-01T12:30:22;14.80;99.90
13346;DHT22;6742;48.036;15.780;2023-01-01T12:33:04;14.80;99.90
13346;DHT22;6742;48.036;15.780;2023-01-01T12:35:47;14.90;99.90
13346;DHT22;6742;48.036;15.780;2023-01-01T12:38:24;15.00;99.90
13346;DHT22;6742;48.036;15.780;2023-01-01T12:40:59;15.00;99.90
13346;DHT22;6742;48.036;15.780;2023-01-01T12:51:24;15.00;99.90
13346;DHT22;6742;48.036;15.780;2023-01-01T12:56:52;15.00;99.90
13346;DHT22;6742;48.036;15.780;2023-01-01T12:59:26;15.00;99.90
13346;DHT22;6742;48.036;15.780;2023-01-01T13:01:55;15.00;99.90
13346;DHT22;6742;48.036;15.780;2023-01-01T13:04:25;15.10;99.90
13346;DHT22;6742;48.036;15.780;2023-01-01T13:06:56;15.10;99.90
13346;DHT22;6742;48.036;15.780;2023-01-01T13:09:31;15.10;99.90
13346;DHT22;6742;48.036;15.780;2023-01-01T13:12:04;15.10;99.90
13346;DHT22;6742;48.036;15.780;2023-01-01T13:14:37;15.00;99.90
13346;DHT22;6742;48.036;15.780;2023-01-01T13:17:16;15.00;99.90
13346;DHT22;6742;48.036;15.780;2023-01-01T13:19:43;14.90;99.90
13346;DHT22;6742;48.036;15.780;2023-01-01T13:22:38;14.90;99.90
13346;DHT22;6742;48.036;15.780;2023-01-01T13:25:18;14.80;99.90
13346;DHT22;6742;48.036;15.780;2023-01-01T13:28:11;14.80;99.90
13346;DHT22;6742;48.036;15.780;2023-01-01T13:30:46;14.70;99.90
13346;DHT22;6742;48.036;15.780;2023-01-01T13:33:16;14.70;99.90
13346;DHT22;6742;48.036;15.780;2023-01-01T13:36:30;14.60;99.90
13346;DHT22;6742;48.036;15.780;2023-01-01T13:38:59;14.60;99.90
13346;DHT22;6742;48.036;15.780;2023-01-01T13:41:31;14.60;99.90
13346;DHT22;6742;48.036;15.780;2023-01-01T13:44:16;14.50;99.90
13346;DHT22;6742;48.036;15.780;2023-01-01T13:46:59;14.50;99.90
13346;DHT22;6742;48.036;15.780;2023-01-01T13:49:42;14.40;99.90
13346;DHT22;6742;48.036;15.780;2023-01-01T13:52:31;14.40;99.90
13346;DHT22;6742;48.036;15.780;2023-01-01T14:01:34;14.10;
13346;DHT22;6742;48.036;15.780;2023-01-01T14:04:27;13.70;99.90
13346;DHT22;6742;48.036;15.780;2023-01-01T14:06:59;13.40;99.90
13346;DHT22;6742;48.036;15.780;2023-01-01T14:09:30;13.10;99.90
13346;DHT22;6742;48.036;15.780;2023-01-01T14:12:08;12.90;99.90
13346;DHT22;6742;48.036;15.780;2023-01-01T14:14:35;12.80;99.90
13346;DHT22;6742;48.036;15.780;2023-01-01T14:17:05;12.70;99.90
13346;DHT22;6742;48.036;15.780;2023-01-01T14:19:33;12.50;99.90
13346;DHT22;6742;48.036;15.780;2023-01-01T14:22:05;12.20;99.90
13346;DHT22;6742;48.036;15.780;2023-01-01T14:24:36;12.10;99.90
13346;DHT22;6742;48.036;15.780;2023-01-01T14:27:05;12.00;99.90
13346;DHT22;6742;48.036;15.780;2023-01-01T14:29:33;11.80;99.90
13346;DHT22;6742;48.036;15.780;2023-01-01T14:32:13;11.80;99.90
13346;DHT22;6742;48.036;15.780;2023-01-01T14:34:40;11.70;99.90
13346;DHT22;6742;48.036;15.780;2023-01-01T14:37:22;11.70;99.90
13346;DHT22;6742;48.036;15.780;2023-01-01T14:40:05;11.70;99.90
13346;DHT22;6742;48.036;15.780;2023-01-01T14:42:34;11.70;99.90
13346;DHT22;6742;48.036;15.780;2023-01-01T14:45:13;11.60;99.90
13346;DHT22;6742;48.036;15.780;2023-01-01T14:47:40;11.50;99.90
13346;DHT22;6742;48.036;15.780;2023-01-01T14:50:20;11.40;99.90
13346;DHT22;6742;48.036;15.780;2023-01-01T14:52:51;11.20;99.90
13346;DHT22;6742;48.036;15.780;2023-01-01T14:55:19;11.20;99.90
13346;DHT22;6742;48.036;15.780;2023-01-01T14:59:30;9.00;99.90
13346;DHT22;6742;48.036;15.780;2023-01-01T15:02:00;11.20;99.90
13346;DHT22;6742;48.036;15.780;2023-01-01T15:04:28;11.20;99.90
13346;DHT22;6742;48.036;15.780;2023-01-01T15:06:56;11.10;99.90
13346;DHT22;6742;48.036;15.780;2023-01-01T15:09:25;11.00;99.90
13346;DHT22;6742;48.036;15.780;2023-01-01T15:11:53;10.80;99.90
13346;DHT22;6742;48.036;15.780;2023-01-01T15:14:36;10.80;99.90
13346;DHT22;6742;48.036;15.780;2023-01-01T15:17:04;10.80;99.90
13346;DHT22;6742;48.036;15.780;2023-01-01T15:19:32;10.80;99.90
13346;DHT22;6742;48.036;15.780;2023-01-01T15:22:06;10.80;99.90
13346;DHT22;6742;48.036;15.780;2023-01-01T15:24:34;10.90;99.90
13346;DHT22;6742;48.036;15.780;2023-01-01T15:27:03;10.90;99.90
13346;DHT22;6742;48.036;15.780;2023-01-01T15:29:34;10.90;99.90
13346;DHT22;6742;48.036;15.780;2023-01-01T15:32:04;10.80;99.90
13346;DHT22;6742;48.036;15.780;2023-01-01T15:34:35;10.70;99.90
13346;DHT22;6742;48.036;15.780;2023-01-01T15:37:11;10.70;99.90
13346;DHT22;6742;48.036;15.780;2023-01-01T15:39:47;10.60;99.90
13346;DHT22;6742;48.036;15.780;2023-01-01T15:42:34;10.50;99.90
13346;DHT22;6742;48.036;15.780;2023-01-01T15:45:19;10.40;99.90
13346;DHT22;6742;48.036;15.780;2023-01-01T15:47:47;10.40;99.90
13346;DHT22;6742;48.036;15.780;2023-01-01T15:50:21;10.20;99.90
13346;DHT22;6742;48.036;15.780;2023-01-01T15:52:50;10.10;99.90
13346;DHT22;6742;48.036;15.780;2023-01-01T15:55:18;10.20;99.90
13346;DHT22;6742;48.036;15.780;2023-01-01T15:57:46;10.20;99.90
13346;DHT22;6742;48.036;15.780;2023-01-01T16:00:22;10.20;99.90
13346;DHT22;6742;48.036;15.780;2023-01-01T16:02:51;10.20;99.90
13346;DHT22;6742;48.036;15.780;2023-01-01T16:05:21;10.10;99.90
13346;DHT22;6742;48.036;15.780;2023-01-01T16:07:56;10.00;99.90
13346;DHT22;6742;48.036;15.780;2023-01-01T16:10:23;10.00;99.90
13346;DHT22;6742;48.036;15.780;2023-01-01T16:12:50;10.00;99.90
13346;DHT22;6742;48.036;15.780;2023-01-01T16:15:21;10.00;99.90
13346;DHT22;6742;48.036;15.780;2023-01-01T16:17:48;10.00;99.90
13346;DHT22;6742;48.036;15.780;2023-01-01T16:20:16;10.00;99.90
13346;DHT22;6742;48.036;15.780;2023-01-01T16:22:44;10.00;99.90
13346;DHT22;6742;48.036;15.780;2023-01-01T16:25:12;10.00;99.90